createdAt,value
2022-08-28T00:01:57.723Z,14.58
2022-08-28T00:04:24.920Z,14.51
2022-08-28T00:06:51.940Z,14.46
2022-08-28T00:09:19.039Z,14.41
2022-08-28T00:11:47.315Z,14.39
2022-08-28T00:14:14.561Z,14.37
2022-08-28T00:16:42.231Z,14.35
2022-08-28T00:19:11.002Z,14.34
2022-08-28T00:21:38.319Z,14.31
2022-08-28T00:24:05.324Z,14.31
2022-08-28T00:26:51.160Z,14.25
2022-08-28T00:29:18.001Z,14.23
2022-08-28T00:31:45.079Z,14.20
2022-08-28T00:34:12.540Z,14.21
2022-08-28T00:36:41.481Z,14.20
2022-08-28T00:39:09.623Z,14.26
2022-08-28T00:41:41.197Z,14.35
2022-08-28T00:44:19.076Z,14.45
2022-08-28T00:46:49.557Z,14.63
2022-08-28T00:49:21.207Z,14.81
2022-08-28T00:52:11.831Z,14.97
2022-08-28T00:54:59.510Z,15.15
2022-08-28T00:57:41.006Z,15.34
2022-08-28T01:00:14.099Z,15.46
2022-08-28T01:02:41.198Z,15.57
2022-08-28T01:05:09.840Z,15.62
2022-08-28T01:07:38.136Z,15.66
2022-08-28T01:10:09.682Z,15.63
2022-08-28T01:12:37.252Z,15.62
2022-08-28T01:15:14.046Z,15.58
2022-08-28T01:17:48.073Z,15.53
2022-08-28T01:20:19.692Z,15.53
2022-08-28T01:23:14.203Z,15.52
2022-08-28T01:25:42.585Z,15.54
2022-08-28T01:28:12.676Z,15.50
2022-08-28T01:30:45.406Z,15.45
2022-08-28T01:33:14.852Z,15.42
2022-08-28T01:35:45.812Z,15.36
2022-08-28T01:38:12.857Z,15.37
2022-08-28T01:40:48.908Z,15.39
2022-08-28T01:43:17.187Z,15.31
2022-08-28T01:45:47.507Z,15.29
2022-08-28T01:48:16.124Z,15.21
2022-08-28T01:50:44.020Z,15.13
2022-08-28T01:53:15.719Z,15.06
2022-08-28T01:55:44.028Z,14.96
2022-08-28T01:58:12.271Z,14.92
2022-08-28T02:00:40.038Z,14.85
2022-08-28T02:03:07.152Z,14.73
2022-08-28T02:05:34.989Z,14.66
2022-08-28T02:08:04.951Z,14.65
2022-08-28T02:10:34.016Z,14.65
2022-08-28T02:13:01.527Z,14.62
2022-08-28T02:15:30.565Z,14.60
2022-08-28T02:17:58.281Z,14.56
2022-08-28T02:20:25.730Z,14.53
2022-08-28T02:22:53.031Z,14.52
2022-08-28T02:25:20.124Z,14.48
2022-08-28T02:27:47.015Z,14.35
2022-08-28T02:30:15.457Z,14.22
2022-08-28T02:32:44.451Z,14.13
2022-08-28T02:35:13.326Z,14.06
2022-08-28T02:37:44.344Z,14.07
2022-08-28T02:43:08.643Z,14.07
2022-08-28T02:45:36.150Z,14.08
2022-08-28T02:48:03.319Z,14.08
2022-08-28T02:50:31.567Z,14.08
2022-08-28T02:52:58.746Z,14.14
2022-08-28T02:55:25.832Z,14.21
2022-08-28T02:57:53.002Z,14.28
2022-08-28T03:00:23.604Z,14.33
2022-08-28T03:02:51.248Z,14.38
2022-08-28T03:05:21.125Z,14.45
2022-08-28T03:07:49.415Z,14.48
2022-08-28T03:10:16.431Z,14.54
2022-08-28T03:12:43.585Z,14.62
2022-08-28T03:15:11.406Z,14.69
2022-08-28T03:17:39.146Z,14.76
2022-08-28T03:20:09.532Z,14.84
2022-08-28T03:22:55.535Z,14.90
2022-08-28T03:25:23.291Z,14.99
2022-08-28T03:27:50.875Z,15.04
2022-08-28T03:30:18.970Z,15.10
2022-08-28T03:32:45.934Z,15.15
2022-08-28T03:35:13.316Z,15.23
2022-08-28T03:37:40.409Z,15.30
2022-08-28T03:40:08.791Z,15.37
2022-08-28T03:42:36.076Z,15.43
2022-08-28T03:45:05.504Z,15.51
2022-08-28T03:47:32.339Z,15.55
2022-08-28T03:50:00.319Z,15.64
2022-08-28T03:52:27.258Z,15.68
2022-08-28T03:54:54.361Z,15.76
2022-08-28T03:57:22.600Z,15.83
2022-08-28T03:59:51.574Z,15.95
2022-08-28T04:02:20.661Z,16.04
2022-08-28T04:04:50.707Z,16.07
2022-08-28T04:07:18.966Z,16.17
2022-08-28T04:09:46.970Z,16.22
2022-08-28T04:12:15.261Z,16.28
2022-08-28T04:14:42.295Z,16.34
2022-08-28T04:17:10.009Z,16.42
2022-08-28T04:19:38.078Z,16.53
2022-08-28T04:22:04.940Z,16.70
2022-08-28T04:24:31.786Z,16.97
2022-08-28T04:26:58.979Z,17.22
2022-08-28T04:29:25.918Z,17.49
2022-08-28T04:31:53.118Z,17.68
2022-08-28T04:34:20.223Z,17.88
2022-08-28T04:36:50.121Z,18.05
2022-08-28T04:39:17.224Z,18.01
2022-08-28T04:41:44.310Z,17.81
2022-08-28T04:44:11.203Z,17.57
2022-08-28T04:46:38.624Z,17.45
2022-08-28T04:49:06.029Z,17.32
2022-08-28T04:51:33.432Z,17.12
2022-08-28T04:54:02.633Z,16.96
2022-08-28T04:56:29.822Z,16.87
2022-08-28T04:58:56.691Z,16.76
2022-08-28T05:01:24.945Z,16.78
2022-08-28T05:03:57.906Z,16.80
2022-08-28T05:06:29.289Z,16.84
2022-08-28T05:08:59.164Z,16.85
2022-08-28T05:11:33.762Z,16.85
2022-08-28T05:14:15.914Z,16.84
2022-08-28T05:16:53.046Z,16.85
2022-08-28T05:19:21.239Z,16.89
2022-08-28T05:21:49.422Z,16.95
2022-08-28T05:24:16.283Z,17.06
2022-08-28T05:26:43.330Z,17.17
2022-08-28T05:29:11.240Z,17.29
2022-08-28T05:31:40.376Z,17.48
2022-08-28T05:34:07.487Z,17.58
2022-08-28T05:36:36.755Z,17.79
2022-08-28T05:39:07.179Z,17.93
2022-08-28T05:41:34.764Z,18.11
2022-08-28T05:44:04.866Z,18.35
2022-08-28T05:46:32.379Z,18.68
2022-08-28T05:49:00.573Z,18.99
2022-08-28T05:51:28.576Z,19.40
2022-08-28T05:53:57.768Z,20.03
2022-08-28T05:56:31.047Z,21.02
2022-08-28T05:59:00.193Z,21.94
2022-08-28T06:01:33.876Z,22.71
2022-08-28T06:04:03.472Z,23.11
2022-08-28T06:06:34.489Z,23.24
2022-08-28T06:09:08.758Z,23.12
2022-08-28T06:11:36.025Z,22.95
2022-08-28T06:14:04.567Z,22.89
2022-08-28T06:16:32.578Z,23.12
2022-08-28T06:19:00.770Z,23.35
2022-08-28T06:21:29.421Z,23.47
2022-08-28T06:23:56.475Z,23.55
2022-08-28T06:26:23.991Z,23.71
2022-08-28T06:28:53.169Z,23.85
2022-08-28T06:31:24.548Z,24.34
2022-08-28T06:33:57.837Z,24.89
2022-08-28T06:36:27.612Z,25.23
2022-08-28T06:38:58.235Z,25.06
2022-08-28T06:41:26.590Z,24.67
2022-08-28T06:43:54.134Z,24.47
2022-08-28T06:46:22.049Z,24.24
2022-08-28T06:48:49.014Z,24.15
2022-08-28T06:51:15.850Z,24.15
2022-08-28T06:53:44.650Z,24.22
2022-08-28T06:56:25.709Z,24.34
2022-08-28T06:58:56.826Z,24.54
2022-08-28T07:01:33.022Z,24.56
2022-08-28T07:04:09.054Z,24.40
2022-08-28T07:06:38.999Z,24.45
2022-08-28T07:09:08.540Z,24.76
2022-08-28T07:11:36.777Z,25.52
2022-08-28T07:14:04.954Z,26.51
2022-08-28T07:16:35.539Z,27.52
2022-08-28T07:19:05.013Z,28.57
2022-08-28T07:21:36.930Z,29.83
2022-08-28T07:24:07.102Z,30.80
2022-08-28T07:26:34.972Z,31.21
2022-08-28T07:29:09.894Z,31.44
2022-08-28T07:31:44.058Z,31.99
2022-08-28T07:34:12.504Z,32.01
2022-08-28T07:36:39.826Z,31.25
2022-08-28T07:39:08.022Z,31.19
2022-08-28T07:41:39.058Z,30.90
2022-08-28T07:44:26.420Z,31.10
2022-08-28T07:46:55.634Z,31.63
2022-08-28T07:49:23.393Z,31.79
2022-08-28T07:51:50.239Z,31.36
2022-08-28T07:54:22.614Z,30.78
2022-08-28T07:56:50.768Z,30.13
2022-08-28T07:59:19.431Z,29.66
2022-08-28T08:01:47.842Z,29.09
2022-08-28T08:04:16.373Z,28.86
2022-08-28T08:06:44.289Z,28.85
2022-08-28T08:09:14.692Z,29.60
2022-08-28T08:11:42.760Z,30.65
2022-08-28T08:14:10.107Z,31.71
2022-08-28T08:16:39.755Z,32.64
2022-08-28T08:19:10.123Z,33.38
2022-08-28T08:21:37.533Z,33.89
2022-08-28T08:24:05.272Z,34.24
2022-08-28T08:26:33.695Z,34.45
2022-08-28T08:29:01.093Z,34.04
2022-08-28T08:31:32.728Z,33.50
2022-08-28T08:34:03.620Z,32.93
2022-08-28T08:36:32.792Z,32.20
2022-08-28T08:39:00.736Z,31.47
2022-08-28T08:41:48.427Z,30.78
2022-08-28T08:44:40.895Z,30.13
2022-08-28T08:47:19.497Z,29.97
2022-08-28T08:49:52.455Z,29.80
2022-08-28T08:52:44.062Z,29.80
2022-08-28T08:55:25.954Z,30.41
2022-08-28T08:58:16.625Z,31.61
2022-08-28T09:00:52.784Z,32.98
2022-08-28T09:03:25.176Z,34.05
2022-08-28T09:05:56.955Z,35.26
2022-08-28T09:08:30.835Z,36.09
2022-08-28T09:11:07.150Z,36.68
2022-08-28T09:13:37.013Z,37.24
2022-08-28T09:16:13.030Z,37.40
2022-08-28T09:18:40.554Z,38.30
2022-08-28T09:21:07.370Z,39.17
2022-08-28T09:23:34.326Z,39.73
2022-08-28T09:26:09.349Z,39.96
2022-08-28T09:28:40.867Z,38.40
2022-08-28T09:31:20.074Z,38.07
2022-08-28T09:33:51.352Z,37.92
2022-08-28T09:36:34.459Z,37.30
2022-08-28T09:39:32.073Z,36.47
2022-08-28T09:42:32.768Z,35.94
2022-08-28T09:44:59.890Z,35.38
2022-08-28T09:47:46.271Z,34.75
2022-08-28T09:50:21.565Z,34.45
2022-08-28T09:52:49.689Z,34.51
2022-08-28T09:55:33.567Z,34.04
2022-08-28T09:58:01.330Z,33.67
2022-08-28T10:00:34.201Z,33.44
2022-08-28T10:03:14.598Z,33.50
2022-08-28T10:05:58.343Z,32.98
2022-08-28T10:08:57.667Z,32.76
2022-08-28T10:11:34.225Z,32.62
2022-08-28T10:14:15.125Z,32.36
2022-08-28T10:17:25.230Z,32.29
2022-08-28T10:20:14.070Z,32.19
2022-08-28T10:23:01.295Z,31.82
2022-08-28T10:25:44.184Z,31.33
2022-08-28T10:28:24.092Z,30.88
2022-08-28T10:30:56.128Z,30.71
2022-08-28T10:33:45.745Z,30.63
2022-08-28T10:36:33.973Z,30.97
2022-08-28T10:39:12.296Z,32.28
2022-08-28T10:41:55.832Z,33.46
2022-08-28T10:44:41.405Z,34.69
2022-08-28T10:47:10.243Z,35.19
2022-08-28T10:49:49.088Z,35.30
2022-08-28T10:52:32.427Z,35.51
2022-08-28T10:55:02.203Z,35.73
2022-08-28T10:57:36.117Z,35.76
2022-08-28T11:00:14.637Z,35.51
2022-08-28T11:02:45.988Z,35.75
2022-08-28T11:05:13.512Z,36.34
2022-08-28T11:07:54.472Z,37.09
2022-08-28T11:10:36.493Z,38.34
2022-08-28T11:13:06.368Z,39.35
2022-08-28T11:15:37.109Z,39.86
2022-08-28T11:18:16.447Z,40.14
2022-08-28T11:20:56.272Z,40.55
2022-08-28T11:23:35.403Z,40.86
2022-08-28T11:26:06.600Z,40.34
2022-08-28T11:28:36.462Z,39.93
2022-08-28T11:31:06.275Z,39.64
2022-08-28T11:33:52.985Z,39.59
2022-08-28T11:36:19.939Z,39.41
2022-08-28T11:38:52.918Z,39.26
2022-08-28T11:41:29.493Z,38.57
2022-08-28T11:44:12.608Z,37.51
2022-08-28T11:46:43.468Z,36.90
2022-08-28T11:49:33.646Z,35.36
2022-08-28T11:52:18.104Z,35.17
2022-08-28T11:55:07.020Z,35.19
2022-08-28T11:57:54.274Z,35.08
2022-08-28T12:00:33.034Z,35.23
2022-08-28T12:03:11.263Z,35.21
2022-08-28T12:05:40.171Z,34.56
2022-08-28T12:08:09.011Z,34.23
2022-08-28T12:10:35.806Z,33.75
2022-08-28T12:13:05.356Z,33.22
2022-08-28T12:15:32.405Z,32.75
2022-08-28T12:18:05.711Z,32.47
2022-08-28T12:20:35.704Z,32.22
2022-08-28T12:23:24.728Z,32.08
2022-08-28T12:26:01.767Z,32.29
2022-08-28T12:28:51.940Z,32.42
2022-08-28T12:32:05.235Z,32.37
2022-08-28T12:34:58.181Z,32.51
2022-08-28T12:37:52.278Z,33.23
2022-08-28T12:40:38.332Z,34.43
2022-08-28T12:43:08.126Z,35.55
2022-08-28T12:45:42.796Z,36.60
2022-08-28T12:48:24.438Z,36.67
2022-08-28T12:51:08.579Z,36.13
2022-08-28T12:53:47.550Z,35.48
2022-08-28T12:56:17.890Z,34.81
2022-08-28T12:58:46.045Z,34.08
2022-08-28T13:01:27.490Z,33.05
2022-08-28T13:04:02.005Z,32.15
2022-08-28T13:06:39.147Z,31.53
2022-08-28T13:09:14.238Z,31.01
2022-08-28T13:11:47.320Z,30.58
2022-08-28T13:14:34.332Z,30.24
2022-08-28T13:17:01.300Z,29.86
2022-08-28T13:19:30.946Z,29.57
2022-08-28T13:22:28.530Z,29.32
2022-08-28T13:25:00.430Z,29.11
2022-08-28T13:27:27.680Z,29.02
2022-08-28T13:30:24.692Z,28.88
2022-08-28T13:32:58.155Z,28.85
2022-08-28T13:35:25.125Z,28.77
2022-08-28T13:37:54.531Z,28.73
2022-08-28T13:43:16.360Z,28.64
2022-08-28T13:45:45.951Z,28.60
2022-08-28T13:48:21.129Z,28.62
2022-08-28T13:50:52.799Z,28.65
2022-08-28T13:53:21.454Z,28.69
2022-08-28T13:55:50.762Z,28.74
2022-08-28T13:58:17.945Z,28.73
2022-08-28T14:00:47.435Z,28.78
2022-08-28T14:03:33.468Z,28.76
2022-08-28T14:06:00.835Z,28.84
2022-08-28T14:08:27.626Z,28.93
2022-08-28T14:10:54.520Z,29.05
2022-08-28T14:13:23.354Z,29.14
2022-08-28T14:15:50.293Z,29.15
2022-08-28T14:18:18.207Z,29.15
2022-08-28T14:20:45.360Z,29.13
2022-08-28T14:23:12.559Z,29.17
2022-08-28T14:25:43.960Z,29.31
2022-08-28T14:28:12.089Z,29.35
2022-08-28T14:30:44.017Z,29.33
2022-08-28T14:33:11.288Z,29.21
2022-08-28T14:35:40.772Z,29.12
2022-08-28T14:38:10.598Z,29.05
2022-08-28T14:40:43.197Z,28.94
2022-08-28T14:43:12.041Z,28.92
2022-08-28T14:45:46.860Z,28.91
2022-08-28T14:48:15.004Z,28.96
2022-08-28T14:50:44.064Z,29.14
2022-08-28T14:53:11.151Z,29.26
2022-08-28T14:55:56.163Z,29.22
2022-08-28T14:58:23.000Z,29.12
2022-08-28T15:00:50.883Z,29.08
2022-08-28T15:03:19.723Z,28.97
2022-08-28T15:05:46.565Z,28.74
2022-08-28T15:08:17.226Z,28.54
2022-08-28T15:10:45.003Z,28.39
2022-08-28T15:13:12.803Z,28.32
2022-08-28T15:15:41.347Z,28.22
2022-08-28T15:18:10.324Z,28.17
2022-08-28T15:20:42.940Z,28.08
2022-08-28T15:23:11.517Z,28.05
2022-08-28T15:25:38.483Z,27.98
2022-08-28T15:28:05.847Z,27.93
2022-08-28T15:30:32.813Z,27.89
2022-08-28T15:32:59.921Z,27.85
2022-08-28T15:35:26.984Z,27.81
2022-08-28T15:37:54.264Z,27.72
2022-08-28T15:40:40.178Z,27.66
2022-08-28T15:43:07.416Z,27.59
2022-08-28T15:45:39.261Z,27.50
2022-08-28T15:48:06.911Z,27.42
2022-08-28T15:50:34.230Z,27.32
2022-08-28T15:53:01.847Z,27.26
2022-08-28T15:55:28.952Z,27.22
2022-08-28T15:57:56.295Z,27.17
2022-08-28T16:00:23.500Z,27.10
2022-08-28T16:02:50.319Z,27.00
2022-08-28T16:05:17.487Z,26.91
2022-08-28T16:07:44.945Z,26.83
2022-08-28T16:10:13.807Z,26.80
2022-08-28T16:12:41.116Z,26.76
2022-08-28T16:15:09.448Z,26.75
2022-08-28T16:17:36.327Z,26.74
2022-08-28T16:20:06.700Z,26.73
2022-08-28T16:22:39.539Z,26.66
2022-08-28T16:25:07.598Z,26.63
2022-08-28T16:27:34.436Z,26.62
2022-08-28T16:30:03.391Z,26.59
2022-08-28T16:32:30.540Z,26.51
2022-08-28T16:34:58.355Z,26.46
2022-08-28T16:37:26.128Z,26.42
2022-08-28T16:40:06.674Z,26.37
2022-08-28T16:42:33.573Z,26.28
2022-08-28T16:45:00.687Z,26.26
2022-08-28T16:47:31.742Z,26.22
2022-08-28T16:50:05.927Z,26.16
2022-08-28T16:52:33.118Z,26.11
2022-08-28T16:55:00.083Z,26.02
2022-08-28T16:57:27.587Z,25.84
2022-08-28T16:59:54.674Z,25.68
2022-08-28T17:02:26.694Z,25.55
2022-08-28T17:05:00.490Z,25.36
2022-08-28T17:07:28.476Z,25.19
2022-08-28T17:09:55.661Z,24.97
2022-08-28T17:12:22.615Z,24.86
2022-08-28T17:14:49.724Z,24.68
2022-08-28T17:17:16.591Z,24.54
2022-08-28T17:19:43.421Z,24.43
2022-08-28T17:22:29.354Z,24.28
2022-08-28T17:24:56.259Z,24.05
2022-08-28T17:27:23.357Z,23.86
2022-08-28T17:29:50.688Z,23.63
2022-08-28T17:32:17.669Z,23.45
2022-08-28T17:34:45.246Z,23.29
2022-08-28T17:37:12.137Z,23.08
2022-08-28T17:39:39.128Z,22.98
2022-08-28T17:42:06.299Z,22.89
2022-08-28T17:44:35.329Z,22.75
2022-08-28T17:47:02.415Z,22.66
2022-08-28T17:49:29.574Z,22.50
2022-08-28T17:51:56.485Z,22.35
2022-08-28T17:54:24.459Z,22.24
2022-08-28T17:56:54.474Z,22.14
2022-08-28T17:59:22.803Z,22.08
2022-08-28T18:01:50.099Z,21.97
2022-08-28T18:04:23.918Z,21.90
2022-08-28T18:06:54.478Z,21.74
2022-08-28T18:09:23.534Z,21.60
2022-08-28T18:11:51.122Z,21.46
2022-08-28T18:14:18.100Z,21.31
2022-08-28T18:16:45.144Z,21.18
2022-08-28T18:19:12.082Z,21.05
2022-08-28T18:21:40.425Z,20.94
2022-08-28T18:24:08.563Z,20.84
2022-08-28T18:26:35.395Z,20.77
2022-08-28T18:29:02.216Z,20.67
2022-08-28T18:33:58.350Z,20.48
2022-08-28T18:36:43.530Z,20.39
2022-08-28T18:39:10.886Z,20.31
2022-08-28T18:41:43.492Z,20.27
2022-08-28T18:44:13.531Z,20.20
2022-08-28T18:46:40.643Z,20.11
2022-08-28T18:49:07.556Z,20.06
2022-08-28T18:51:34.615Z,20.00
2022-08-28T18:54:02.955Z,19.97
2022-08-28T18:56:32.165Z,19.90
2022-08-28T18:59:00.688Z,19.91
2022-08-28T19:01:28.464Z,19.96
2022-08-28T19:03:55.643Z,19.92
2022-08-28T19:06:23.412Z,19.87
2022-08-28T19:08:50.290Z,19.79
2022-08-28T19:11:17.817Z,19.70
2022-08-28T19:13:45.036Z,19.63
2022-08-28T19:16:17.316Z,19.52
2022-08-28T19:18:45.815Z,19.48
2022-08-28T19:21:19.679Z,19.43
2022-08-28T19:23:55.986Z,19.39
2022-08-28T19:26:26.937Z,19.31
2022-08-28T19:28:55.173Z,19.26
2022-08-28T19:31:23.014Z,19.23
2022-08-28T19:33:50.768Z,19.17
2022-08-28T19:36:18.664Z,19.14
2022-08-28T19:38:45.821Z,19.06
2022-08-28T19:41:14.544Z,18.95
2022-08-28T19:43:43.414Z,18.87
2022-08-28T19:46:18.600Z,18.82
2022-08-28T19:48:51.797Z,18.84
2022-08-28T19:51:22.661Z,18.86
2022-08-28T19:53:57.280Z,18.89
2022-08-28T19:56:29.953Z,18.88
2022-08-28T19:58:59.332Z,18.83
2022-08-28T20:01:29.964Z,18.70
2022-08-28T20:03:58.182Z,18.65
2022-08-28T20:06:25.662Z,18.58
2022-08-28T20:08:52.507Z,18.57
2022-08-28T20:11:30.298Z,18.51
2022-08-28T20:14:04.048Z,18.44
2022-08-28T20:16:35.326Z,18.40
2022-08-28T20:19:04.001Z,18.27
2022-08-28T20:21:37.078Z,18.25
2022-08-28T20:24:12.077Z,18.24
2022-08-28T20:26:39.575Z,18.19
2022-08-28T20:29:08.598Z,18.16
2022-08-28T20:31:40.496Z,18.11
2022-08-28T20:34:09.239Z,18.07
2022-08-28T20:36:36.232Z,18.02
2022-08-28T20:39:07.182Z,17.99
2022-08-28T20:41:34.859Z,17.99
2022-08-28T20:44:05.040Z,17.92
2022-08-28T20:46:37.045Z,17.88
2022-08-28T20:49:08.111Z,17.84
2022-08-28T20:51:53.349Z,17.82
2022-08-28T20:54:22.197Z,17.76
2022-08-28T20:56:51.026Z,17.72
2022-08-28T20:59:19.504Z,17.69
2022-08-28T21:01:46.733Z,17.65
2022-08-28T21:04:13.603Z,17.61
2022-08-28T21:06:40.463Z,17.57
2022-08-28T21:09:07.474Z,17.49
2022-08-28T21:11:34.333Z,17.45
2022-08-28T21:14:01.133Z,17.45
2022-08-28T21:16:28.278Z,17.47
2022-08-28T21:19:14.636Z,17.45
2022-08-28T21:21:42.857Z,17.44
2022-08-28T21:24:12.219Z,17.44
2022-08-28T21:26:43.279Z,17.34
2022-08-28T21:29:11.395Z,17.35
2022-08-28T21:31:40.919Z,17.33
2022-08-28T21:34:09.520Z,17.35
2022-08-28T21:36:38.221Z,17.34
2022-08-28T21:39:05.949Z,17.30
2022-08-28T21:41:33.096Z,17.27
2022-08-28T21:44:00.333Z,17.20
2022-08-28T21:46:27.874Z,17.18
2022-08-28T21:48:56.305Z,17.14
2022-08-28T21:51:24.693Z,17.11
2022-08-28T21:53:52.966Z,17.11
2022-08-28T21:56:24.085Z,17.06
2022-08-28T21:58:52.569Z,17.03
2022-08-28T22:01:21.168Z,17.03
2022-08-28T22:03:48.089Z,17.00
2022-08-28T22:06:18.517Z,16.99
2022-08-28T22:08:46.744Z,16.96
2022-08-28T22:11:14.247Z,16.96
2022-08-28T22:13:44.223Z,16.95
2022-08-28T22:16:11.381Z,16.93
2022-08-28T22:18:38.318Z,16.90
2022-08-28T22:21:24.902Z,16.86
2022-08-28T22:23:51.728Z,16.84
2022-08-28T22:26:20.726Z,16.85
2022-08-28T22:28:47.880Z,16.82
2022-08-28T22:31:14.855Z,16.84
2022-08-28T22:33:43.093Z,16.88
2022-08-28T22:36:10.938Z,16.96
2022-08-28T22:38:39.681Z,17.00
2022-08-28T22:41:07.667Z,17.06
2022-08-28T22:43:35.335Z,17.11
2022-08-28T22:46:03.916Z,17.17
2022-08-28T22:48:31.506Z,17.21
2022-08-28T22:51:18.351Z,17.15
2022-08-28T22:53:46.818Z,17.19
2022-08-28T22:56:14.600Z,17.20
2022-08-28T22:58:41.699Z,17.20
2022-08-28T23:01:13.959Z,17.20
2022-08-28T23:03:41.268Z,17.19
2022-08-28T23:06:08.385Z,17.16
2022-08-28T23:08:35.492Z,17.18
2022-08-28T23:11:03.180Z,17.21
2022-08-28T23:13:30.898Z,17.24
2022-08-28T23:15:58.399Z,17.25
2022-08-28T23:18:25.503Z,17.31
2022-08-28T23:20:55.340Z,17.43
2022-08-28T23:23:23.844Z,17.58
2022-08-28T23:25:50.766Z,17.71
2022-08-28T23:28:18.445Z,17.86
2022-08-28T23:30:48.475Z,17.96
2022-08-28T23:33:23.737Z,18.07
2022-08-28T23:35:52.120Z,18.15
2022-08-28T23:38:19.526Z,18.20
2022-08-28T23:40:48.267Z,18.25
2022-08-28T23:43:17.963Z,18.31
2022-08-28T23:45:45.106Z,18.39
2022-08-28T23:48:12.349Z,18.49
2022-08-28T23:50:42.195Z,18.56
2022-08-28T23:53:09.854Z,18.60
2022-08-28T23:55:37.422Z,18.68
2022-08-28T23:58:05.379Z,18.70
